Time;durP1;ratioP1;P1;durP2;ratioP2;P2;SDS_P1;SDS_P2;PMS_P1;PMS_P2;Temp;Humidity;BMP_temperature;BMP_pressure;BME280_temperature;BME280_humidity;BME280_pressure;Samples;Min_cycle;Max_cycle;Signal;HPM_P1;HPM_P2
2024/01/28 00:00:47;;;;;;;26.70;11.15;;;;;;;;;;5041311;28;20040;-78
2024/01/28 00:03:13;;;;;;;34.80;13.30;;;;;;;;;;5069515;28;20044;-77
2024/01/28 00:05:39;;;;;;;27.60;11.00;;;;;;;;;;5054313;28;20043;-79
2024/01/28 00:08:06;;;;;;;34.83;12.18;;;;;;;;;;5056336;28;20048;-78
2024/01/28 00:10:32;;;;;;;31.83;11.18;;;;;;;;;;5073049;28;20074;-78
2024/01/28 00:12:59;;;;;;;27.85;11.27;;;;;;;;;;5090173;28;20365;-78
2024/01/28 00:15:25;;;;;;;21.27;11.52;;;;;;;;;;5054085;28;20068;-79
2024/01/28 00:17:57;;;;;;;39.97;13.80;;;;;;;;;;5055137;28;20035;-79
2024/01/28 00:20:23;;;;;;;37.15;14.40;;;;;;;;;;5070451;28;20487;-78
2024/01/28 00:22:49;;;;;;;32.78;11.43;;;;;;;;;;5069671;28;20422;-78
2024/01/28 00:25:16;;;;;;;30.98;11.48;;;;;;;;;;5068623;28;20456;-78
2024/01/28 00:27:42;;;;;;;23.35;11.10;;;;;;;;;;5071289;28;20491;-78
2024/01/28 00:30:09;;;;;;;31.08;11.07;;;;;;;;;;5052961;28;20089;-78
2024/01/28 00:32:35;;;;;;;34.65;11.30;;;;;;;;;;5035463;28;20119;-79
2024/01/28 00:35:01;;;;;;;26.30;11.98;;;;;;;;;;5064357;28;20054;-78
2024/01/28 00:37:27;;;;;;;22.50;9.57;;;;;;;;;;5073192;28;20043;-78
2024/01/28 00:39:53;;;;;;;32.75;12.23;;;;;;;;;;5070824;28;20059;-78
2024/01/28 00:42:19;;;;;;;34.15;11.43;;;;;;;;;;5038496;28;20048;-78
2024/01/28 00:44:45;;;;;;;32.22;10.43;;;;;;;;;;5036214;28;20098;-78
2024/01/28 00:47:11;;;;;;;30.35;11.13;;;;;;;;;;5054602;28;20085;-78
2024/01/28 00:49:37;;;;;;;26.60;11.57;;;;;;;;;;5035894;28;20442;-77
2024/01/28 00:52:03;;;;;;;22.98;10.65;;;;;;;;;;5069411;28;20032;-78
2024/01/28 00:54:29;;;;;;;34.00;11.63;;;;;;;;;;5036108;28;20112;-78
2024/01/28 00:56:59;;;;;;;24.75;10.13;;;;;;;;;;5054016;28;20043;-78
2024/01/28 00:59:25;;;;;;;31.92;11.07;;;;;;;;;;5090547;28;20382;-78
2024/01/28 01:01:52;;;;;;;24.17;10.55;;;;;;;;;;5049919;28;20053;-78
2024/01/28 01:04:18;;;;;;;25.85;11.00;;;;;;;;;;5052809;28;20491;-77
2024/01/28 01:06:45;;;;;;;30.08;10.43;;;;;;;;;;5045653;28;20032;-79
2024/01/28 01:09:11;;;;;;;25.08;11.30;;;;;;;;;;5068992;28;20090;-78
2024/01/28 01:11:37;;;;;;;26.48;11.07;;;;;;;;;;5046891;28;20028;-79
2024/01/28 01:14:04;;;;;;;27.88;11.63;;;;;;;;;;5054711;28;20058;-78
2024/01/28 01:16:30;;;;;;;29.38;10.57;;;;;;;;;;5068219;28;20036;-78
2024/01/28 01:18:56;;;;;;;29.33;11.20;;;;;;;;;;5036922;28;20052;-77
2024/01/28 01:21:22;;;;;;;25.35;11.38;;;;;;;;;;5063932;28;20373;-78
2024/01/28 01:23:48;;;;;;;24.98;10.35;;;;;;;;;;5043342;28;20399;-78
2024/01/28 01:26:14;;;;;;;23.70;10.38;;;;;;;;;;5073682;28;20040;-78
2024/01/28 01:28:40;;;;;;;33.75;12.00;;;;;;;;;;5045762;28;21158;-78
2024/01/28 01:31:06;;;;;;;26.40;11.02;;;;;;;;;;5037765;28;20036;-78
2024/01/28 01:33:32;;;;;;;26.17;11.70;;;;;;;;;;5054449;28;20039;-79
2024/01/28 01:35:58;;;;;;;29.60;11.70;;;;;;;;;;5040265;28;20083;-78
2024/01/28 01:38:24;;;;;;;29.67;10.75;;;;;;;;;;5071383;28;20040;-78
2024/01/28 01:40:50;;;;;;;31.42;10.57;;;;;;;;;;5053941;28;20487;-78
2024/01/28 01:43:16;;;;;;;36.70;11.45;;;;;;;;;;5040229;28;20032;-78
2024/01/28 01:45:43;;;;;;;34.08;10.73;;;;;;;;;;5040065;28;20412;-78
2024/01/28 01:48:13;;;;;;;23.60;10.90;;;;;;;;;;5070420;28;20047;-78
2024/01/28 01:50:40;;;;;;;21.58;11.00;;;;;;;;;;5060631;28;20039;-78
2024/01/28 01:53:06;;;;;;;30.63;11.10;;;;;;;;;;5074626;28;20492;-78
2024/01/28 01:55:36;;;;;;;32.38;10.77;;;;;;;;;;5059386;28;20032;-78
2024/01/28 01:58:03;;;;;;;21.13;10.80;;;;;;;;;;5042700;28;20181;-77
2024/01/28 02:00:29;;;;;;;20.02;10.25;;;;;;;;;;5057333;28;20051;-78
2024/01/28 02:02:55;;;;;;;23.25;10.85;;;;;;;;;;5059716;28;20498;-78
2024/01/28 02:05:21;;;;;;;24.20;10.43;;;;;;;;;;5055249;28;20072;-78
2024/01/28 02:07:47;;;;;;;26.95;10.02;;;;;;;;;;5046572;28;20032;-78
2024/01/28 02:10:14;;;;;;;34.80;11.35;;;;;;;;;;5058837;28;20059;-78
2024/01/28 02:12:43;;;;;;;23.00;10.02;;;;;;;;;;5057785;28;20036;-78
2024/01/28 02:15:10;;;;;;;20.48;10.40;;;;;;;;;;5057326;28;20047;-78
2024/01/28 02:17:36;;;;;;;27.00;9.93;;;;;;;;;;5044165;28;20048;-78
2024/01/28 02:20:03;;;;;;;19.30;9.45;;;;;;;;;;5074879;28;20044;-77
2024/01/28 02:22:29;;;;;;;28.38;10.75;;;;;;;;;;5060656;28;20050;-78
2024/01/28 02:24:57;;;;;;;21.50;11.00;;;;;;;;;;5062419;28;20491;-76
2024/01/28 02:27:23;;;;;;;25.23;11.40;;;;;;;;;;5073927;28;20062;-78
2024/01/28 02:29:50;;;;;;;27.05;13.63;;;;;;;;;;5041130;28;20051;-77
2024/01/28 02:32:16;;;;;;;24.27;11.15;;;;;;;;;;5055130;28;20069;-78
2024/01/28 02:34:43;;;;;;;28.70;11.20;;;;;;;;;;5058172;28;20368;-78
2024/01/28 02:37:10;;;;;;;31.95;11.75;;;;;;;;;;5055618;28;20048;-78
2024/01/28 02:39:36;;;;;;;25.80;11.18;;;;;;;;;;5056864;28;20050;-78
2024/01/28 02:42:03;;;;;;;27.33;11.77;;;;;;;;;;5040128;28;20119;-78
2024/01/28 02:44:29;;;;;;;27.02;12.65;;;;;;;;;;5103662;28;20050;-78
2024/01/28 02:46:56;;;;;;;31.88;12.57;;;;;;;;;;5070611;28;20040;-78
2024/01/28 02:49:25;;;;;;;31.05;13.43;;;;;;;;;;5073278;28;20043;-78
2024/01/28 02:51:51;;;;;;;31.27;12.30;;;;;;;;;;5071498;28;20081;-78
2024/01/28 02:54:17;;;;;;;33.75;13.18;;;;;;;;;;5057353;28;20035;-78
2024/01/28 02:56:44;;;;;;;25.38;12.38;;;;;;;;;;5065518;28;20072;-78
2024/01/28 02:59:10;;;;;;;34.92;13.15;;;;;;;;;;5075944;28;20532;-78
2024/01/28 03:01:46;;;;;;;28.85;13.77;;;;;;;;;;5068782;28;20043;-77
2024/01/28 03:04:13;;;;;;;35.80;13.50;;;;;;;;;;5073335;28;20487;-78
2024/01/28 03:06:39;;;;;;;26.70;13.00;;;;;;;;;;5055797;28;20093;-77
2024/01/28 03:09:05;;;;;;;34.20;13.32;;;;;;;;;;5039360;28;20036;-80
2024/01/28 03:11:32;;;;;;;31.08;13.90;;;;;;;;;;5073468;28;20058;-80
2024/01/28 03:13:58;;;;;;;32.30;14.10;;;;;;;;;;5051211;28;20135;-79
2024/01/28 03:16:24;;;;;;;29.58;14.00;;;;;;;;;;5053048;28;20115;-80
2024/01/28 03:18:50;;;;;;;33.25;12.85;;;;;;;;;;5057745;28;20415;-80
2024/01/28 03:21:16;;;;;;;30.63;13.45;;;;;;;;;;5053346;28;20101;-80
2024/01/28 03:23:42;;;;;;;28.02;13.95;;;;;;;;;;5053845;28;20035;-80
2024/01/28 03:26:11;;;;;;;27.73;14.15;;;;;;;;;;5058017;28;20467;-80
2024/01/28 03:28:37;;;;;;;30.02;13.82;;;;;;;;;;5069024;28;20036;-80
2024/01/28 03:31:04;;;;;;;29.33;12.73;;;;;;;;;;5055586;28;20063;-80
2024/01/28 03:33:30;;;;;;;25.60;13.27;;;;;;;;;;5052223;28;20518;-80
2024/01/28 03:35:56;;;;;;;34.85;14.05;;;;;;;;;;5046011;28;1152504;-80
2024/01/28 03:38:22;;;;;;;28.80;13.82;;;;;;;;;;5036074;28;20118;-80
2024/01/28 03:40:49;;;;;;;30.85;12.60;;;;;;;;;;5071260;28;20058;-80
2024/01/28 03:43:15;;;;;;;25.27;12.43;;;;;;;;;;5048997;28;20054;-79
2024/01/28 03:45:41;;;;;;;25.10;11.65;;;;;;;;;;5055056;28;20054;-81
2024/01/28 03:48:07;;;;;;;19.58;11.02;;;;;;;;;;5037518;28;20036;-80
2024/01/28 03:50:33;;;;;;;27.83;11.98;;;;;;;;;;5069066;28;20035;-79
2024/01/28 03:52:59;;;;;;;27.02;12.75;;;;;;;;;;5050666;28;20036;-80
2024/01/28 03:55:26;;;;;;;22.92;11.98;;;;;;;;;;5039295;28;20077;-80
2024/01/28 03:57:52;;;;;;;31.02;13.32;;;;;;;;;;5054019;28;20039;-79
2024/01/28 04:00:18;;;;;;;24.65;12.98;;;;;;;;;;5052468;28;20092;-80
2024/01/28 04:02:45;;;;;;;29.83;13.93;;;;;;;;;;5048021;28;20098;-80
2024/01/28 04:05:11;;;;;;;29.20;13.30;;;;;;;;;;5073333;28;20097;-80
2024/01/28 04:07:37;;;;;;;23.20;13.38;;;;;;;;;;5071649;28;20040;-79
2024/01/28 04:10:04;;;;;;;28.08;13.60;;;;;;;;;;5055051;28;20039;-80
2024/01/28 04:12:30;;;;;;;27.15;13.63;;;;;;;;;;5075994;28;20217;-80
2024/01/28 04:14:56;;;;;;;27.83;13.20;;;;;;;;;;5068725;28;20036;-80
2024/01/28 04:17:22;;;;;;;31.02;14.27;;;;;;;;;;5041895;28;20035;-80
2024/01/28 04:19:51;;;;;;;28.17;14.05;;;;;;;;;;5043920;28;20051;-78
2024/01/28 04:22:17;;;;;;;27.88;13.70;;;;;;;;;;5054877;28;20036;-78
2024/01/28 04:24:43;;;;;;;31.38;14.70;;;;;;;;;;5068102;28;20036;-77
2024/01/28 04:27:09;;;;;;;33.13;14.70;;;;;;;;;;5051439;28;20066;-77
2024/01/28 04:29:35;;;;;;;27.35;13.40;;;;;;;;;;5051673;28;20390;-77
2024/01/28 04:32:01;;;;;;;35.67;15.85;;;;;;;;;;5053450;28;20616;-78
2024/01/28 04:34:28;;;;;;;39.15;15.52;;;;;;;;;;5054830;28;20390;-78
2024/01/28 04:36:54;;;;;;;35.35;14.85;;;;;;;;;;5053717;28;20066;-79
2024/01/28 04:39:20;;;;;;;31.15;15.27;;;;;;;;;;5074039;28;20036;-78
2024/01/28 04:41:46;;;;;;;34.95;17.27;;;;;;;;;;5052636;28;20040;-78
2024/01/28 04:44:13;;;;;;;30.35;15.38;;;;;;;;;;5071374;28;20039;-78
2024/01/28 04:46:39;;;;;;;23.30;14.07;;;;;;;;;;5035896;28;20496;-78
2024/01/28 04:49:05;;;;;;;29.00;15.55;;;;;;;;;;5052720;28;20062;-78
2024/01/28 04:51:33;;;;;;;33.95;14.40;;;;;;;;;;5056742;28;20043;-77
2024/01/28 04:53:59;;;;;;;32.28;14.95;;;;;;;;;;5041951;28;20069;-77
2024/01/28 04:56:25;;;;;;;28.90;14.57;;;;;;;;;;5070499;28;20039;-78
2024/01/28 04:58:52;;;;;;;29.25;14.98;;;;;;;;;;5051466;28;20043;-77
2024/01/28 05:01:18;;;;;;;31.52;14.70;;;;;;;;;;5049556;28;20039;-77
2024/01/28 05:03:44;;;;;;;33.20;14.93;;;;;;;;;;5035787;28;20296;-77
2024/01/28 05:06:10;;;;;;;32.20;15.68;;;;;;;;;;5036576;28;20040;-78
2024/01/28 05:08:36;;;;;;;28.20;14.18;;;;;;;;;;5054169;28;20044;-77
2024/01/28 05:11:02;;;;;;;32.30;14.82;;;;;;;;;;5033070;28;20472;-78
2024/01/28 05:13:29;;;;;;;31.15;13.35;;;;;;;;;;5036830;28;20037;-78
2024/01/28 05:15:56;;;;;;;27.25;13.93;;;;;;;;;;5052389;28;20036;-78
2024/01/28 05:18:22;;;;;;;29.83;14.82;;;;;;;;;;5067127;28;20616;-77
2024/01/28 05:20:48;;;;;;;34.58;15.15;;;;;;;;;;5056223;28;20063;-77
2024/01/28 05:23:14;;;;;;;25.65;14.50;;;;;;;;;;5041090;28;20044;-76
2024/01/28 05:25:41;;;;;;;26.25;14.02;;;;;;;;;;5051833;28;20092;-77
2024/01/28 05:28:08;;;;;;;27.95;13.75;;;;;;;;;;5035044;28;20079;-77
2024/01/28 05:30:35;;;;;;;22.63;12.95;;;;;;;;;;5067890;28;20048;-78
2024/01/28 05:33:01;;;;;;;27.92;14.13;;;;;;;;;;5053288;28;20115;-77
2024/01/28 05:35:30;;;;;;;30.98;14.23;;;;;;;;;;5068387;28;20056;-78
2024/01/28 05:37:56;;;;;;;26.90;13.38;;;;;;;;;;5067720;28;20150;-77
2024/01/28 05:40:23;;;;;;;34.35;14.82;;;;;;;;;;5066943;28;20044;-77
2024/01/28 05:42:49;;;;;;;28.42;13.88;;;;;;;;;;5070622;28;20069;-78
2024/01/28 05:45:15;;;;;;;30.00;14.75;;;;;;;;;;5036355;28;20040;-78
2024/01/28 05:47:41;;;;;;;32.15;13.82;;;;;;;;;;5072421;28;20586;-76
2024/01/28 05:50:07;;;;;;;30.00;13.27;;;;;;;;;;5055043;28;20460;-77
2024/01/28 05:52:33;;;;;;;27.02;12.63;;;;;;;;;;5050468;28;20032;-78
2024/01/28 05:54:59;;;;;;;31.25;13.07;;;;;;;;;;5068288;28;20040;-78
2024/01/28 05:57:25;;;;;;;22.42;12.32;;;;;;;;;;5055654;28;20036;-78
2024/01/28 05:59:51;;;;;;;26.95;13.13;;;;;;;;;;5069060;28;20044;-78
2024/01/28 06:02:17;;;;;;;26.58;12.88;;;;;;;;;;5069502;28;20044;-78
2024/01/28 06:04:43;;;;;;;23.88;12.93;;;;;;;;;;5039674;28;20047;-78
2024/01/28 06:07:09;;;;;;;30.55;13.30;;;;;;;;;;5055342;28;20044;-79
2024/01/28 06:09:35;;;;;;;27.67;12.45;;;;;;;;;;5073170;28;20146;-78
2024/01/28 06:12:02;;;;;;;29.17;13.32;;;;;;;;;;5057165;28;20040;-78
2024/01/28 06:14:28;;;;;;;25.95;11.98;;;;;;;;;;5064289;28;20042;-79
2024/01/28 06:16:54;;;;;;;20.88;12.55;;;;;;;;;;5075650;28;20043;-78
2024/01/28 06:19:20;;;;;;;26.33;14.10;;;;;;;;;;5057112;28;20039;-79
2024/01/28 06:21:46;;;;;;;29.98;13.57;;;;;;;;;;5057213;28;20086;-78
2024/01/28 06:24:12;;;;;;;26.55;12.75;;;;;;;;;;5037168;28;20094;-78
2024/01/28 06:26:39;;;;;;;24.13;11.20;;;;;;;;;;5041033;28;20116;-79
2024/01/28 06:29:05;;;;;;;28.80;12.27;;;;;;;;;;5046117;28;20047;-77
2024/01/28 06:31:31;;;;;;;26.58;12.68;;;;;;;;;;5072268;28;20063;-78
2024/01/28 06:33:57;;;;;;;21.92;11.38;;;;;;;;;;5070621;28;20036;-79
2024/01/28 06:36:23;;;;;;;27.58;12.45;;;;;;;;;;5070866;28;20056;-78
2024/01/28 06:38:49;;;;;;;27.38;12.80;;;;;;;;;;5044726;28;20040;-80
2024/01/28 06:41:16;;;;;;;23.85;11.57;;;;;;;;;;5038663;28;20044;-79
2024/01/28 06:43:42;;;;;;;33.25;13.15;;;;;;;;;;5072281;28;20028;-80
2024/01/28 06:46:08;;;;;;;24.33;11.85;;;;;;;;;;5054706;28;20040;-79
2024/01/28 06:48:34;;;;;;;26.23;11.90;;;;;;;;;;5077185;28;20043;-79
2024/01/28 06:51:03;;;;;;;26.92;11.52;;;;;;;;;;5058537;28;20123;-79
2024/01/28 06:53:30;;;;;;;24.80;12.02;;;;;;;;;;5051295;28;20035;-79
2024/01/28 06:55:56;;;;;;;31.23;12.32;;;;;;;;;;5082516;28;20074;-79
2024/01/28 06:58:22;;;;;;;25.65;11.82;;;;;;;;;;5078946;28;20043;-79
2024/01/28 07:00:48;;;;;;;25.50;12.43;;;;;;;;;;5078878;28;20135;-79
2024/01/28 07:03:17;;;;;;;26.40;11.13;;;;;;;;;;5074903;28;20128;-79
2024/01/28 07:05:46;;;;;;;19.77;11.85;;;;;;;;;;5071934;28;20059;-80
2024/01/28 07:08:14;;;;;;;21.02;11.70;;;;;;;;;;5072082;28;20166;-80
2024/01/28 07:10:40;;;;;;;25.42;11.95;;;;;;;;;;5072513;28;20059;-80
2024/01/28 07:13:06;;;;;;;25.73;11.40;;;;;;;;;;5069952;28;20078;-80
2024/01/28 07:15:32;;;;;;;26.48;11.95;;;;;;;;;;5053898;28;20027;-80
2024/01/28 07:17:58;;;;;;;22.33;11.43;;;;;;;;;;5076447;28;20206;-80
2024/01/28 07:20:26;;;;;;;22.27;11.45;;;;;;;;;;5059299;28;20093;-80
2024/01/28 07:22:52;;;;;;;22.85;12.25;;;;;;;;;;5071121;28;20051;-80
2024/01/28 07:25:19;;;;;;;21.13;12.20;;;;;;;;;;5056035;28;20047;-80
2024/01/28 07:27:46;;;;;;;21.00;11.95;;;;;;;;;;5056859;28;20473;-80
2024/01/28 07:30:12;;;;;;;25.77;11.60;;;;;;;;;;5070287;28;20036;-80
2024/01/28 07:32:38;;;;;;;19.00;11.02;;;;;;;;;;5072151;28;20074;-80
2024/01/28 07:35:05;;;;;;;21.30;11.35;;;;;;;;;;5056943;28;20063;-80
2024/01/28 07:37:31;;;;;;;28.83;11.82;;;;;;;;;;5057406;28;20079;-79
2024/01/28 07:39:57;;;;;;;25.65;12.57;;;;;;;;;;5056070;28;20036;-79
2024/01/28 07:42:23;;;;;;;22.25;11.35;;;;;;;;;;5061370;28;20127;-79
2024/01/28 07:44:49;;;;;;;19.65;12.77;;;;;;;;;;5087666;28;20505;-80
2024/01/28 07:47:15;;;;;;;21.92;10.63;;;;;;;;;;5069724;28;20050;-80
2024/01/28 07:49:41;;;;;;;19.15;11.10;;;;;;;;;;5061330;28;20044;-82
2024/01/28 07:52:07;;;;;;;21.20;10.35;;;;;;;;;;5060824;28;20043;-83
2024/01/28 07:54:33;;;;;;;18.33;10.23;;;;;;;;;;5061757;28;20491;-83
2024/01/28 07:57:00;;;;;;;17.30;10.02;;;;;;;;;;5040227;28;20039;-83
2024/01/28 07:59:26;;;;;;;25.77;11.00;;;;;;;;;;5060142;28;20036;-83
2024/01/28 08:01:53;;;;;;;20.30;10.73;;;;;;;;;;5077795;28;20131;-83
2024/01/28 08:04:19;;;;;;;29.70;10.35;;;;;;;;;;5078042;28;20530;-83
2024/01/28 08:06:45;;;;;;;20.27;10.57;;;;;;;;;;5076013;28;20449;-82
2024/01/28 08:09:11;;;;;;;21.05;10.77;;;;;;;;;;5061878;28;20381;-83
2024/01/28 08:11:38;;;;;;;27.30;10.50;;;;;;;;;;5064360;28;20400;-82
2024/01/28 08:14:04;;;;;;;17.63;9.73;;;;;;;;;;5060595;28;20131;-82
2024/01/28 08:16:31;;;;;;;17.70;9.60;;;;;;;;;;5082366;28;20039;-82
2024/01/28 08:18:58;;;;;;;20.20;9.52;;;;;;;;;;5038327;28;20034;-82
2024/01/28 08:21:24;;;;;;;20.65;9.73;;;;;;;;;;5071496;28;20552;-82
2024/01/28 08:23:50;;;;;;;21.15;9.45;;;;;;;;;;5070182;28;20036;-83
2024/01/28 08:26:16;;;;;;;22.38;9.95;;;;;;;;;;5076420;28;20067;-81
2024/01/28 08:28:42;;;;;;;23.45;9.63;;;;;;;;;;5071391;28;20551;-83
2024/01/28 08:31:08;;;;;;;22.23;9.52;;;;;;;;;;5054784;28;20475;-83
2024/01/28 08:33:35;;;;;;;20.75;7.95;;;;;;;;;;5062131;28;20046;-81
2024/01/28 08:36:01;;;;;;;17.38;8.77;;;;;;;;;;5054493;28;20159;-81
2024/01/28 08:38:29;;;;;;;21.50;10.25;;;;;;;;;;5072009;28;20044;-83
2024/01/28 08:40:55;;;;;;;22.20;9.07;;;;;;;;;;5050260;28;20419;-83
2024/01/28 08:43:21;;;;;;;18.70;8.48;;;;;;;;;;5050222;28;20044;-83
2024/01/28 08:45:48;;;;;;;18.52;8.05;;;;;;;;;;5069430;28;20047;-82
2024/01/28 08:48:14;;;;;;;15.15;7.97;;;;;;;;;;5055714;28;20050;-82
2024/01/28 08:50:40;;;;;;;21.13;9.43;;;;;;;;;;5051448;28;20127;-83
2024/01/28 08:53:07;;;;;;;16.67;8.57;;;;;;;;;;5049962;28;20039;-81
2024/01/28 08:55:33;;;;;;;17.63;7.88;;;;;;;;;;5051161;28;20429;-81
2024/01/28 08:57:59;;;;;;;16.48;9.70;;;;;;;;;;5070595;28;20039;-81
2024/01/28 09:00:25;;;;;;;15.75;8.43;;;;;;;;;;5071131;28;20398;-83
2024/01/28 09:02:51;;;;;;;14.50;7.50;;;;;;;;;;5054681;28;20054;-82
2024/01/28 09:05:18;;;;;;;18.50;7.10;;;;;;;;;;5035905;28;20059;-81
2024/01/28 09:07:45;;;;;;;12.90;7.25;;;;;;;;;;5067931;28;20461;-80
2024/01/28 09:10:14;;;;;;;14.98;6.72;;;;;;;;;;5035015;28;20039;-82
2024/01/28 09:12:40;;;;;;;15.85;6.55;;;;;;;;;;5053116;28;20051;-81
2024/01/28 09:15:06;;;;;;;16.15;6.32;;;;;;;;;;5071038;28;21985;-83
2024/01/28 09:17:32;;;;;;;15.63;6.38;;;;;;;;;;5054427;28;21396;-83
2024/01/28 09:19:58;;;;;;;12.13;6.38;;;;;;;;;;5067778;28;20071;-81
2024/01/28 09:22:26;;;;;;;14.77;6.22;;;;;;;;;;5037444;28;20059;-81
2024/01/28 09:24:53;;;;;;;14.57;5.90;;;;;;;;;;5055128;28;20105;-82
2024/01/28 09:27:22;;;;;;;11.90;5.88;;;;;;;;;;5050173;28;20044;-82
2024/01/28 09:29:48;;;;;;;13.07;5.55;;;;;;;;;;5071881;28;20076;-83
2024/01/28 09:32:17;;;;;;;17.70;5.57;;;;;;;;;;5072677;28;20043;-83
2024/01/28 09:34:45;;;;;;;18.20;5.75;;;;;;;;;;5072775;28;20040;-82
2024/01/28 09:37:11;;;;;;;10.77;5.20;;;;;;;;;;5037981;28;20087;-81
2024/01/28 09:39:37;;;;;;;7.70;4.93;;;;;;;;;;5059338;28;20638;-81
2024/01/28 09:42:18;;;;;;;13.48;4.55;;;;;;;;;;5076780;28;20036;-82
2024/01/28 09:44:45;;;;;;;13.07;5.20;;;;;;;;;;5044115;28;20040;-81
2024/01/28 09:47:12;;;;;;;11.95;5.30;;;;;;;;;;5060110;28;20036;-81
2024/01/28 09:49:39;;;;;;;11.57;5.28;;;;;;;;;;5071458;28;20036;-81
2024/01/28 09:52:10;;;;;;;13.82;4.75;;;;;;;;;;5057694;28;20100;-80
2024/01/28 09:54:37;;;;;;;10.38;4.63;;;;;;;;;;5037226;28;20090;-80
2024/01/28 09:57:05;;;;;;;12.77;4.18;;;;;;;;;;5074168;28;20518;-81
2024/01/28 09:59:33;;;;;;;11.43;5.18;;;;;;;;;;5052219;28;20079;-81
2024/01/28 10:02:01;;;;;;;16.67;5.00;;;;;;;;;;5049424;28;20048;-81
2024/01/28 10:04:27;;;;;;;12.90;5.03;;;;;;;;;;5070917;28;20491;-81
2024/01/28 10:06:57;;;;;;;11.95;4.80;;;;;;;;;;5039623;28;20083;-81
2024/01/28 10:09:23;;;;;;;10.68;4.78;;;;;;;;;;5057488;28;20382;-82
2024/01/28 10:11:51;;;;;;;13.30;5.10;;;;;;;;;;5070939;28;20051;-78
2024/01/28 10:14:17;;;;;;;10.35;5.20;;;;;;;;;;5054072;28;20083;-79
2024/01/28 10:16:47;;;;;;;17.35;4.80;;;;;;;;;;5041164;28;20071;-79
2024/01/28 10:19:13;;;;;;;15.00;5.60;;;;;;;;;;5069338;28;20036;-79
2024/01/28 10:21:39;;;;;;;7.47;3.92;;;;;;;;;;5052202;28;20040;-79
2024/01/28 10:24:08;;;;;;;9.43;4.40;;;;;;;;;;5060995;28;20135;-79
2024/01/28 10:26:35;;;;;;;10.82;5.63;;;;;;;;;;5069661;28;20036;-79
2024/01/28 10:29:01;;;;;;;10.10;4.88;;;;;;;;;;5073614;28;20032;-78
2024/01/28 10:31:27;;;;;;;8.68;4.20;;;;;;;;;;5055473;28;20639;-78
2024/01/28 10:33:53;;;;;;;8.52;4.30;;;;;;;;;;5052744;28;20032;-79
2024/01/28 10:36:19;;;;;;;10.48;4.97;;;;;;;;;;5038116;28;20052;-80
2024/01/28 10:38:46;;;;;;;10.93;5.03;;;;;;;;;;5052655;28;20076;-80
2024/01/28 10:41:16;;;;;;;12.80;6.05;;;;;;;;;;5070349;28;20090;-79
2024/01/28 10:43:45;;;;;;;12.00;7.05;;;;;;;;;;5053422;28;20044;-79
2024/01/28 10:46:13;;;;;;;17.10;8.60;;;;;;;;;;5074436;28;20046;-79
2024/01/28 10:48:41;;;;;;;12.98;8.00;;;;;;;;;;5056997;28;20086;-80
2024/01/28 10:51:09;;;;;;;15.98;9.77;;;;;;;;;;5072616;28;20032;-79
2024/01/28 10:53:36;;;;;;;18.75;7.55;;;;;;;;;;5073918;28;20036;-79
2024/01/28 10:56:03;;;;;;;10.98;6.50;;;;;;;;;;5071654;28;20044;-79
2024/01/28 10:58:30;;;;;;;13.23;7.10;;;;;;;;;;5061475;28;20042;-80
2024/01/28 11:00:56;;;;;;;13.52;6.30;;;;;;;;;;5072769;28;20040;-79
2024/01/28 11:03:23;;;;;;;15.55;6.50;;;;;;;;;;5071836;28;20083;-79
2024/01/28 11:05:49;;;;;;;8.32;4.35;;;;;;;;;;5064825;28;20046;-79
2024/01/28 11:08:15;;;;;;;9.70;5.75;;;;;;;;;;5071134;28;20043;-79
2024/01/28 11:10:41;;;;;;;12.48;6.03;;;;;;;;;;5054855;28;20143;-78
2024/01/28 11:13:07;;;;;;;10.30;5.57;;;;;;;;;;5039734;28;20463;-80
2024/01/28 11:15:35;;;;;;;8.13;4.97;;;;;;;;;;5074011;28;20074;-79
2024/01/28 11:18:01;;;;;;;7.93;3.88;;;;;;;;;;5054878;28;20047;-79
2024/01/28 11:20:28;;;;;;;11.65;5.10;;;;;;;;;;5054837;28;20051;-80
2024/01/28 11:22:55;;;;;;;6.90;3.90;;;;;;;;;;5069550;28;20043;-79
2024/01/28 11:25:22;;;;;;;11.45;3.90;;;;;;;;;;5067642;28;20063;-79
2024/01/28 11:27:49;;;;;;;9.68;3.63;;;;;;;;;;5070594;28;20059;-85
2024/01/28 11:30:19;;;;;;;8.38;3.65;;;;;;;;;;5071203;28;20044;-83
2024/01/28 11:32:49;;;;;;;6.95;3.20;;;;;;;;;;5093226;28;20494;-84
2024/01/28 11:35:15;;;;;;;5.88;2.97;;;;;;;;;;5069672;28;20085;-85
2024/01/28 11:37:51;;;;;;;7.50;3.00;;;;;;;;;;5088871;28;20071;-85
2024/01/28 11:40:23;;;;;;;5.47;3.08;;;;;;;;;;5069719;28;20040;-86
2024/01/28 11:42:52;;;;;;;7.60;3.35;;;;;;;;;;5050826;28;20812;-85
2024/01/28 11:45:19;;;;;;;7.82;3.85;;;;;;;;;;5062000;28;20075;-85
2024/01/28 11:47:46;;;;;;;5.75;3.17;;;;;;;;;;5057129;28;20051;-85
2024/01/28 11:50:12;;;;;;;8.90;3.67;;;;;;;;;;5059743;28;20071;-85
2024/01/28 11:52:38;;;;;;;6.63;3.28;;;;;;;;;;5070746;28;20040;-79
2024/01/28 11:55:14;;;;;;;6.70;2.78;;;;;;;;;;5068767;28;20110;-79
2024/01/28 11:57:41;;;;;;;7.38;4.05;;;;;;;;;;5049239;28;20036;-79
2024/01/28 12:00:10;;;;;;;8.73;3.53;;;;;;;;;;5072733;28;20040;-79
2024/01/28 12:02:37;;;;;;;5.75;3.55;;;;;;;;;;5046957;28;20046;-78
2024/01/28 12:05:03;;;;;;;6.88;2.83;;;;;;;;;;5052011;28;20429;-79
2024/01/28 12:07:33;;;;;;;8.40;2.92;;;;;;;;;;5047209;28;20512;-78
2024/01/28 12:10:00;;;;;;;7.90;2.55;;;;;;;;;;5046661;28;20039;-78
2024/01/28 12:12:26;;;;;;;7.25;2.80;;;;;;;;;;5053836;28;20031;-79
2024/01/28 12:14:52;;;;;;;3.22;2.58;;;;;;;;;;5071141;28;20044;-78
2024/01/28 12:17:18;;;;;;;4.78;2.78;;;;;;;;;;5055129;28;20040;-79
2024/01/28 12:19:44;;;;;;;4.90;3.20;;;;;;;;;;5072012;28;20495;-79
2024/01/28 12:22:11;;;;;;;4.13;2.38;;;;;;;;;;5054639;28;20126;-79
2024/01/28 12:24:37;;;;;;;6.95;3.75;;;;;;;;;;5055883;28;20395;-79
2024/01/28 12:27:05;;;;;;;5.00;2.53;;;;;;;;;;5039823;28;20493;-79
2024/01/28 12:29:31;;;;;;;7.50;2.83;;;;;;;;;;5074025;28;20158;-79
2024/01/28 12:31:57;;;;;;;6.43;2.70;;;;;;;;;;5038184;28;20108;-78
2024/01/28 12:34:26;;;;;;;3.95;2.75;;;;;;;;;;5051118;28;20042;-78
2024/01/28 12:36:52;;;;;;;7.53;2.63;;;;;;;;;;5066588;28;20048;-78
2024/01/28 12:39:18;;;;;;;6.68;2.60;;;;;;;;;;5053302;28;20499;-78
2024/01/28 12:41:45;;;;;;;5.38;2.72;;;;;;;;;;5045910;28;20033;-78
2024/01/28 12:44:11;;;;;;;5.00;2.70;;;;;;;;;;5052691;28;20036;-79
2024/01/28 12:46:37;;;;;;;6.13;2.80;;;;;;;;;;5051171;28;20046;-78
2024/01/28 12:49:03;;;;;;;6.07;2.63;;;;;;;;;;5065586;28;20047;-77
2024/01/28 12:51:29;;;;;;;7.57;2.80;;;;;;;;;;5069073;28;20036;-78
2024/01/28 12:53:55;;;;;;;4.20;2.30;;;;;;;;;;5049021;28;20040;-78
2024/01/28 12:56:21;;;;;;;6.72;2.88;;;;;;;;;;5053460;28;20032;-78
2024/01/28 12:58:48;;;;;;;8.00;2.92;;;;;;;;;;5056169;28;20039;-78
2024/01/28 13:01:14;;;;;;;7.57;2.53;;;;;;;;;;5074931;28;20483;-78
2024/01/28 13:03:40;;;;;;;9.60;2.35;;;;;;;;;;5037642;28;20104;-78
2024/01/28 13:06:06;;;;;;;4.30;2.45;;;;;;;;;;5050698;28;20138;-79
2024/01/28 13:08:32;;;;;;;7.85;2.97;;;;;;;;;;5065466;28;20090;-79
2024/01/28 13:11:01;;;;;;;5.40;2.22;;;;;;;;;;5054725;28;20040;-79
2024/01/28 13:13:27;;;;;;;8.30;2.85;;;;;;;;;;5073027;28;20036;-79
2024/01/28 13:15:53;;;;;;;4.90;2.58;;;;;;;;;;5055598;28;20134;-79
2024/01/28 13:18:19;;;;;;;5.78;2.72;;;;;;;;;;5050761;28;20097;-79
2024/01/28 13:20:45;;;;;;;10.55;3.30;;;;;;;;;;5072500;28;20047;-79
2024/01/28 13:23:13;;;;;;;7.63;3.00;;;;;;;;;;5051106;28;20487;-78
2024/01/28 13:25:40;;;;;;;4.43;2.88;;;;;;;;;;5060849;28;20578;-78
2024/01/28 13:28:06;;;;;;;7.68;4.05;;;;;;;;;;5053129;28;20047;-78
2024/01/28 13:30:32;;;;;;;6.00;3.08;;;;;;;;;;5051418;28;20043;-79
2024/01/28 13:32:58;;;;;;;8.48;3.08;;;;;;;;;;5054227;28;20052;-78
2024/01/28 13:35:24;;;;;;;8.02;3.33;;;;;;;;;;5046474;28;20052;-78
2024/01/28 13:37:51;;;;;;;5.85;2.75;;;;;;;;;;5057415;28;20036;-79
2024/01/28 13:40:17;;;;;;;3.63;2.38;;;;;;;;;;5060340;28;20452;-78
2024/01/28 13:42:43;;;;;;;5.43;3.25;;;;;;;;;;5072184;28;20453;-78
2024/01/28 13:45:11;;;;;;;7.97;3.13;;;;;;;;;;5062898;28;20157;-77
2024/01/28 13:47:38;;;;;;;6.47;3.42;;;;;;;;;;5072047;28;20458;-78
2024/01/28 13:50:05;;;;;;;7.18;3.50;;;;;;;;;;5056396;28;20044;-78
2024/01/28 13:52:32;;;;;;;8.32;2.60;;;;;;;;;;5055863;28;20047;-79
2024/01/28 13:54:58;;;;;;;5.78;2.88;;;;;;;;;;5071816;28;20036;-78
2024/01/28 13:57:24;;;;;;;5.60;2.45;;;;;;;;;;5055976;28;20074;-78
2024/01/28 13:59:50;;;;;;;4.78;2.60;;;;;;;;;;5053530;28;20041;-78
2024/01/28 14:02:16;;;;;;;5.82;3.50;;;;;;;;;;5050903;28;20039;-78
2024/01/28 14:04:45;;;;;;;5.57;2.53;;;;;;;;;;5070604;28;20036;-78
2024/01/28 14:07:13;;;;;;;6.18;2.13;;;;;;;;;;5069383;28;20040;-78
2024/01/28 14:09:39;;;;;;;5.13;2.47;;;;;;;;;;5053868;28;20536;-77
2024/01/28 14:12:06;;;;;;;5.18;2.17;;;;;;;;;;5039649;28;20094;-77
2024/01/28 14:14:32;;;;;;;2.95;2.03;;;;;;;;;;5076148;28;20039;-77
2024/01/28 14:16:58;;;;;;;5.47;2.80;;;;;;;;;;5073091;28;20059;-78
2024/01/28 14:19:25;;;;;;;7.00;2.45;;;;;;;;;;5052650;28;20131;-78
2024/01/28 14:21:51;;;;;;;7.35;2.60;;;;;;;;;;5054573;28;20075;-79